Time;durP1;ratioP1;P1;durP2;ratioP2;P2;SDS_P1;SDS_P2;PMS_P1;PMS_P2;Temp;Humidity;BMP_temperature;BMP_pressure;BME280_temperature;BME280_humidity;BME280_pressure;Samples;Min_cycle;Max_cycle;Signal;HPM_P1;HPM_P2
2022/12/20 00:01:58;;;;;;;37.47;16.27;;;-1.20;99.90;;;;;;5007800;28;20034;-87
2022/12/20 00:04:24;;;;;;;36.92;16.63;;;-1.10;99.90;;;;;;4996172;28;20073;-87
2022/12/20 00:06:49;;;;;;;32.63;16.48;;;-1.20;99.90;;;;;;5007609;28;20122;-87
2022/12/20 00:09:15;;;;;;;35.90;15.65;;;-1.20;99.90;;;;;;4975594;28;20034;-86
2022/12/20 00:11:43;;;;;;;31.00;16.25;;;-1.10;99.90;;;;;;5007766;28;20073;-87
2022/12/20 00:14:09;;;;;;;32.50;15.02;;;-1.20;99.90;;;;;;5008006;28;20057;-87
2022/12/20 00:16:36;;;;;;;34.67;16.17;;;-1.10;99.90;;;;;;5007741;28;20027;-87
2022/12/20 00:19:04;;;;;;;36.67;17.40;;;-1.20;99.90;;;;;;5008057;28;20042;-87
2022/12/20 00:21:32;;;;;;;37.22;17.08;;;-1.10;99.90;;;;;;5007867;28;20031;-86
2022/12/20 00:23:59;;;;;;;36.85;17.27;;;-1.10;99.90;;;;;;4975376;28;20129;-86
2022/12/20 00:26:30;;;;;;;36.45;16.23;;;-1.10;99.90;;;;;;4974920;28;20489;-87
2022/12/20 00:28:56;;;;;;;31.13;15.15;;;-1.10;99.90;;;;;;5007295;28;20041;-87
2022/12/20 00:31:24;;;;;;;31.90;15.45;;;-1.10;99.90;;;;;;5007084;28;20066;-87
2022/12/20 00:33:52;;;;;;;31.60;16.02;;;-1.10;99.90;;;;;;5007083;28;20026;-86
2022/12/20 00:36:27;;;;;;;33.83;15.95;;;-1.00;99.90;;;;;;4974743;28;20080;-86
2022/12/20 00:38:55;;;;;;;32.95;15.80;;;-1.00;99.90;;;;;;5007204;28;20088;-86
2022/12/20 00:41:27;;;;;;;31.23;15.38;;;-1.00;99.90;;;;;;4976775;28;20027;-87
2022/12/20 00:43:53;;;;;;;31.23;15.65;;;-1.00;99.90;;;;;;5003926;28;20030;-86
2022/12/20 00:46:23;;;;;;;34.13;16.60;;;-1.00;99.90;;;;;;4991398;28;20376;-87
2022/12/20 00:48:49;;;;;;;39.38;18.02;;;-0.90;99.90;;;;;;5007305;28;20034;-87
2022/12/20 00:51:20;;;;;;;38.03;16.33;;;-0.90;99.90;;;;;;4991077;28;20034;-86
2022/12/20 00:53:46;;;;;;;33.60;15.82;;;-0.90;99.90;;;;;;5006798;28;20224;-86
2022/12/20 00:56:13;;;;;;;33.72;15.30;;;-0.80;99.90;;;;;;5006641;28;20053;-86
2022/12/20 00:58:41;;;;;;;30.30;15.77;;;-0.80;99.90;;;;;;5004158;28;20027;-88
2022/12/20 01:01:18;;;;;;;32.78;15.13;;;-0.70;99.90;;;;;;4989149;28;20058;-89
2022/12/20 01:03:47;;;;;;;29.55;14.55;;;-0.70;99.90;;;;;;4991777;28;20026;-89
2022/12/20 01:06:13;;;;;;;30.83;14.73;;;-0.70;99.90;;;;;;5008252;28;20026;-89
2022/12/20 01:08:39;;;;;;;29.50;15.15;;;-0.70;99.90;;;;;;5004742;28;20110;-90
2022/12/20 01:11:12;;;;;;;35.00;16.52;;;-0.70;99.90;;;;;;4992746;28;20118;-88
2022/12/20 01:13:42;;;;;;;38.20;17.02;;;-0.70;99.90;;;;;;4992441;28;20172;-89
2022/12/20 01:16:23;;;;;;;31.08;16.27;;;-0.70;99.90;;;;;;4996078;28;20034;-90
2022/12/20 01:18:50;;;;;;;35.30;16.48;;;-0.70;99.90;;;;;;4992351;28;20037;-91
2022/12/20 01:21:29;;;;;;;32.67;15.20;;;-0.60;99.90;;;;;;4993690;28;20406;-87
2022/12/20 01:24:05;;;;;;;32.08;15.57;;;-0.60;99.90;;;;;;4992515;28;20019;-90
2022/12/20 01:26:31;;;;;;;30.88;14.32;;;-0.60;99.90;;;;;;4991939;28;20117;-90
2022/12/20 01:28:59;;;;;;;31.50;15.32;;;-0.60;99.90;;;;;;4984098;28;20035;-90
2022/12/20 01:31:25;;;;;;;31.48;15.05;;;-0.60;99.90;;;;;;5007571;28;20104;-89
2022/12/20 01:33:51;;;;;;;26.23;13.63;;;-0.50;99.90;;;;;;4994485;28;20034;-90
2022/12/20 01:36:21;;;;;;;32.90;14.93;;;-0.50;99.90;;;;;;4982318;28;20509;-89
2022/12/20 01:38:47;;;;;;;27.98;14.10;;;-0.50;99.90;;;;;;5011302;28;20026;-86
2022/12/20 01:41:18;;;;;;;31.90;14.10;;;-0.50;99.90;;;;;;4998206;28;20030;-86
2022/12/20 01:44:11;;;;;;;27.70;14.20;;;-0.60;99.90;;;;;;5011455;28;20030;-87
2022/12/20 01:46:38;;;;;;;32.30;14.60;;;-0.60;99.90;;;;;;4987775;28;20610;-87
2022/12/20 01:49:10;;;;;;;33.05;14.82;;;-0.60;99.90;;;;;;5011462;28;20138;-86
2022/12/20 01:51:43;;;;;;;33.97;15.43;;;-0.60;99.90;;;;;;5010874;28;20117;-86
2022/12/20 01:54:15;;;;;;;37.13;16.95;;;-0.50;99.90;;;;;;5009386;28;20029;-87
2022/12/20 01:56:46;;;;;;;29.90;14.90;;;-0.50;99.90;;;;;;4994562;28;20109;-85
2022/12/20 01:59:13;;;;;;;34.70;16.33;;;-0.50;99.90;;;;;;5000880;28;20034;-87
2022/12/20 02:01:43;;;;;;;31.92;15.48;;;-0.50;99.90;;;;;;4993851;28;20128;-87
2022/12/20 02:04:16;;;;;;;30.35;15.20;;;-0.50;99.90;;;;;;4994088;28;20038;-86
2022/12/20 02:06:42;;;;;;;32.97;14.10;;;-0.50;99.90;;;;;;4994196;28;20032;-86
2022/12/20 02:09:08;;;;;;;33.63;16.33;;;-0.50;99.90;;;;;;4995552;28;20048;-86
2022/12/20 02:11:59;;;;;;;35.53;16.98;;;-0.50;99.90;;;;;;4977586;28;20660;-87
2022/12/20 02:14:40;;;;;;;32.80;15.35;;;-0.50;99.90;;;;;;5006997;28;20035;-86
2022/12/20 02:17:14;;;;;;;33.85;16.20;;;-0.40;99.90;;;;;;4998830;28;20559;-86
2022/12/20 02:20:14;;;;;;;31.77;16.63;;;-0.50;99.90;;;;;;4994608;28;20101;-87
2022/12/20 02:23:08;;;;;;;33.30;15.48;;;-0.40;99.90;;;;;;5010217;28;20030;-87
2022/12/20 02:25:33;;;;;;;32.70;15.60;;;-0.40;99.90;;;;;;4989168;28;20027;-86
2022/12/20 02:28:14;;;;;;;31.40;16.30;;;-0.40;99.90;;;;;;4999376;28;20517;-86
2022/12/20 02:30:44;;;;;;;32.38;16.02;;;-0.40;99.90;;;;;;5006545;28;20038;-88
2022/12/20 02:33:13;;;;;;;32.08;17.13;;;-0.40;99.90;;;;;;5008150;28;20035;-86
2022/12/20 02:35:41;;;;;;;31.10;16.13;;;-0.40;99.90;;;;;;4989032;28;20051;-87
2022/12/20 02:38:31;;;;;;;36.17;15.85;;;-0.40;99.90;;;;;;5006330;28;20387;-87
2022/12/20 02:41:05;;;;;;;32.92;15.40;;;-0.40;99.90;;;;;;4997614;28;20097;-86
2022/12/20 02:46:19;;;;;;;35.25;16.08;;;-0.30;99.90;;;;;;4992545;28;20093;-88
2022/12/20 02:48:48;;;;;;;38.50;16.80;;;-0.30;99.90;;;;;;4960167;28;20038;-86
2022/12/20 02:51:14;;;;;;;37.30;17.00;;;-0.30;99.90;;;;;;4992501;28;20027;-86
2022/12/20 02:53:41;;;;;;;34.75;17.17;;;-0.30;99.90;;;;;;4961109;28;20038;-87
2022/12/20 02:56:30;;;;;;;42.55;19.27;;;-0.20;99.90;;;;;;5002760;28;20088;-86
2022/12/20 02:59:11;;;;;;;36.65;17.85;;;-0.20;99.90;;;;;;5009976;28;20031;-87
2022/12/20 03:01:53;;;;;;;33.83;16.52;;;-0.20;99.90;;;;;;5009919;28;20030;-86
2022/12/20 03:04:29;;;;;;;38.70;17.30;;;-0.30;99.90;;;;;;4959226;28;20518;-87
2022/12/20 03:07:00;;;;;;;36.22;17.08;;;-0.30;99.90;;;;;;4972389;28;20069;-87
2022/12/20 03:09:27;;;;;;;35.50;18.10;;;-0.30;99.90;;;;;;4978040;28;20045;-88
2022/12/20 03:11:53;;;;;;;37.05;18.58;;;-0.20;99.90;;;;;;5002453;28;20088;-89
2022/12/20 03:14:20;;;;;;;35.35;18.30;;;-0.30;99.90;;;;;;5009585;28;20038;-88
2022/12/20 03:16:47;;;;;;;38.55;18.73;;;-0.30;99.90;;;;;;4990504;28;20030;-87
2022/12/20 03:19:13;;;;;;;41.58;18.17;;;-0.30;99.90;;;;;;5001475;28;20033;-86
2022/12/20 03:21:40;;;;;;;35.53;18.17;;;-0.30;99.90;;;;;;5007920;28;20038;-87
2022/12/20 03:24:06;;;;;;;37.33;18.00;;;-0.40;99.90;;;;;;4993045;28;20030;-88
2022/12/20 03:26:32;;;;;;;34.92;17.65;;;-0.30;99.90;;;;;;5009350;28;20387;-86
2022/12/20 03:28:59;;;;;;;39.50;19.15;;;-0.30;99.90;;;;;;4977031;28;20034;-87
2022/12/20 03:31:26;;;;;;;37.60;18.15;;;-0.30;99.90;;;;;;5015303;28;20105;-86
2022/12/20 03:33:54;;;;;;;35.05;16.98;;;-0.30;99.90;;;;;;4991853;28;20045;-87
2022/12/20 03:36:22;;;;;;;31.63;16.23;;;-0.30;99.90;;;;;;5005090;28;20117;-85
2022/12/20 03:38:52;;;;;;;40.22;17.77;;;-0.40;99.90;;;;;;4963881;28;20065;-86
2022/12/20 03:41:18;;;;;;;38.28;17.08;;;-0.40;99.90;;;;;;5017237;28;20033;-85
2022/12/20 03:43:45;;;;;;;34.10;17.27;;;-0.40;99.90;;;;;;5011572;28;20121;-86
2022/12/20 03:46:11;;;;;;;32.88;17.48;;;-0.40;99.90;;;;;;4978665;28;20035;-87
2022/12/20 03:48:37;;;;;;;35.50;18.60;;;-0.40;99.90;;;;;;4986443;28;20699;-88
2022/12/20 03:51:04;;;;;;;38.10;19.20;;;-0.40;99.90;;;;;;4995186;28;20046;-88
2022/12/20 03:53:30;;;;;;;41.25;18.15;;;-0.40;99.90;;;;;;4992151;28;20470;-88
2022/12/20 03:55:56;;;;;;;42.70;18.77;;;-0.40;99.90;;;;;;4993403;28;20026;-88
2022/12/20 03:58:22;;;;;;;35.17;17.00;;;-0.40;99.90;;;;;;4954008;28;20038;-87
2022/12/20 04:00:49;;;;;;;35.08;17.35;;;-0.40;99.90;;;;;;5009024;28;20117;-86
2022/12/20 04:03:35;;;;;;;37.30;19.00;;;-0.40;99.90;;;;;;4997683;28;20117;-86
2022/12/20 04:06:01;;;;;;;35.92;17.33;;;-0.30;99.90;;;;;;4976861;28;20072;-86
2022/12/20 04:08:27;;;;;;;39.00;18.02;;;-0.30;99.90;;;;;;4992687;28;20068;-86
2022/12/20 04:13:41;;;;;;;37.00;18.38;;;-0.30;99.90;;;;;;4994220;28;20181;-87
2022/12/20 04:16:07;;;;;;;40.95;18.80;;;-0.30;99.90;;;;;;5006119;28;20034;-87
2022/12/20 04:18:34;;;;;;;37.70;18.42;;;-0.30;99.90;;;;;;5011334;28;20042;-86
2022/12/20 04:21:05;;;;;;;42.30;19.58;;;-0.30;99.90;;;;;;5007307;28;20030;-86
2022/12/20 04:23:34;;;;;;;39.35;18.50;;;-0.30;99.90;;;;;;4973078;28;20030;-85
2022/12/20 04:26:01;;;;;;;39.30;18.92;;;-0.30;99.90;;;;;;5005855;28;20364;-86
2022/12/20 04:28:29;;;;;;;41.95;19.75;;;-0.30;99.90;;;;;;5005611;28;20104;-88
2022/12/20 04:30:56;;;;;;;43.95;20.88;;;-0.30;99.90;;;;;;4975994;28;20050;-86
2022/12/20 04:33:25;;;;;;;42.60;19.35;;;-0.30;99.90;;;;;;4990552;28;20046;-87
2022/12/20 04:35:52;;;;;;;43.25;19.25;;;-0.30;99.90;;;;;;5011580;28;20072;-87
2022/12/20 04:38:21;;;;;;;42.30;19.85;;;-0.20;99.90;;;;;;4996579;28;20260;-86
2022/12/20 04:40:49;;;;;;;41.30;20.20;;;-0.20;99.90;;;;;;4992328;28;20646;-86
2022/12/20 04:43:15;;;;;;;41.33;20.00;;;-0.10;99.90;;;;;;4983919;28;20121;-86
2022/12/20 04:45:43;;;;;;;39.05;19.10;;;-0.10;99.90;;;;;;4967795;28;20058;-90
2022/12/20 04:48:10;;;;;;;41.83;20.23;;;-0.10;99.90;;;;;;4991733;28;20065;-87
2022/12/20 04:50:37;;;;;;;41.05;19.33;;;-0.10;99.90;;;;;;5018975;28;20026;-86
2022/12/20 04:54:03;;;;;;;37.92;19.40;;;-0.10;99.90;;;;;;4975983;28;20548;-86
2022/12/20 04:55:58;;;;;;;40.53;19.88;;;-0.10;99.90;;;;;;4982220;28;20045;-86
2022/12/20 04:58:24;;;;;;;38.25;19.63;;;-0.10;99.90;;;;;;5010986;28;20133;-86
2022/12/20 05:00:53;;;;;;;37.10;20.05;;;-0.10;99.90;;;;;;5011260;28;20054;-87
2022/12/20 05:03:26;;;;;;;41.65;20.80;;;-0.10;99.90;;;;;;4976149;28;20125;-87
2022/12/20 05:05:52;;;;;;;42.88;20.52;;;-0.10;99.90;;;;;;4996784;28;20485;-86
2022/12/20 05:08:19;;;;;;;43.83;20.48;;;-0.10;99.90;;;;;;4978947;28;20023;-87
2022/12/20 05:10:48;;;;;;;41.83;20.00;;;-0.10;99.90;;;;;;4998439;28;20102;-86
2022/12/20 05:13:14;;;;;;;42.13;20.02;;;-0.10;99.90;;;;;;4994607;28;20077;-87
2022/12/20 05:15:43;;;;;;;45.13;21.73;;;0.00;99.90;;;;;;5004201;28;20557;-88
2022/12/20 05:18:09;;;;;;;43.67;22.38;;;0.00;99.90;;;;;;4981811;28;20030;-88
2022/12/20 05:26:46;;;;;;;42.78;21.00;;;-0.10;99.90;;;;;;5013240;28;20030;-87
2022/12/20 05:29:11;;;;;;;45.22;21.70;;;0.00;99.90;;;;;;4981923;28;20386;-87
2022/12/20 05:31:37;;;;;;;43.45;21.33;;;0.00;99.90;;;;;;5007588;28;20584;-87
2022/12/20 05:34:04;;;;;;;43.90;20.02;;;0.00;99.90;;;;;;4996960;28;20062;-87
2022/12/20 05:36:33;;;;;;;39.58;20.70;;;0.00;99.90;;;;;;5003946;28;20141;-88
2022/12/20 05:39:01;;;;;;;42.50;20.10;;;0.00;99.90;;;;;;5010629;28;20022;-87
2022/12/20 05:41:27;;;;;;;38.60;20.50;;;0.00;99.90;;;;;;5001253;28;20030;-88
2022/12/20 05:43:53;;;;;;;42.88;22.00;;;0.10;99.90;;;;;;5015227;28;20034;-87
2022/12/20 05:46:19;;;;;;;43.40;21.17;;;0.10;99.90;;;;;;5015356;28;20084;-86
2022/12/20 05:49:01;;;;;;;42.65;21.73;;;0.00;99.90;;;;;;4983136;28;20498;-87
2022/12/20 05:51:27;;;;;;;41.50;20.63;;;0.10;99.90;;;;;;5011974;28;20022;-86
2022/12/20 05:53:56;;;;;;;41.60;21.90;;;0.00;99.90;;;;;;4984058;28;20030;-88
2022/12/20 05:56:36;;;;;;;42.83;19.98;;;0.10;99.90;;;;;;5018074;28;20121;-87
2022/12/20 05:59:03;;;;;;;43.72;19.88;;;0.10;99.90;;;;;;5001157;28;20031;-88
2022/12/20 06:01:29;;;;;;;41.45;19.45;;;0.20;99.90;;;;;;5009291;28;20065;-87
2022/12/20 06:03:57;;;;;;;41.72;20.15;;;0.10;99.90;;;;;;4999462;28;20050;-85
2022/12/20 06:06:23;;;;;;;40.03;19.23;;;0.10;99.90;;;;;;4995362;28;20483;-86
2022/12/20 06:08:49;;;;;;;42.15;20.30;;;0.10;99.90;;;;;;4995399;28;20034;-88
2022/12/20 06:11:21;;;;;;;34.97;19.30;;;0.10;99.90;;;;;;4993213;28;20018;-87
2022/12/20 06:13:53;;;;;;;42.70;20.40;;;0.00;99.90;;;;;;4985182;28;20061;-88
2022/12/20 06:16:20;;;;;;;41.47;18.90;;;0.10;99.90;;;;;;5002118;28;20022;-89
2022/12/20 06:18:46;;;;;;;42.95;21.30;;;0.00;99.90;;;;;;4982942;28;20040;-86
2022/12/20 06:21:22;;;;;;;42.72;20.08;;;0.00;99.90;;;;;;5002990;28;20102;-86
2022/12/20 06:23:51;;;;;;;36.40;19.35;;;0.10;99.90;;;;;;5014146;28;20026;-85
2022/12/20 06:26:17;;;;;;;40.40;19.42;;;0.10;99.90;;;;;;5011895;28;20084;-86
2022/12/20 06:28:51;;;;;;;38.53;18.77;;;0.10;99.90;;;;;;5011319;28;20035;-86
2022/12/20 06:31:21;;;;;;;38.25;19.75;;;0.10;99.90;;;;;;4982033;28;20021;-88
2022/12/20 06:33:50;;;;;;;41.88;20.98;;;0.00;99.90;;;;;;5009645;28;20026;-86
2022/12/20 06:36:18;;;;;;;44.70;21.98;;;0.10;99.90;;;;;;4991802;28;20026;-87
2022/12/20 06:38:44;;;;;;;43.35;20.63;;;0.10;99.90;;;;;;5009623;28;20073;-87
2022/12/20 06:41:10;;;;;;;43.70;20.42;;;0.10;99.90;;;;;;4995433;28;20023;-87
2022/12/20 06:43:36;;;;;;;42.28;19.98;;;0.10;99.90;;;;;;5010885;28;20034;-88
2022/12/20 06:46:02;;;;;;;43.17;20.33;;;0.20;99.90;;;;;;4975240;28;20039;-87
2022/12/20 06:48:28;;;;;;;44.50;21.10;;;0.10;99.90;;;;;;4996220;28;20022;-89
2022/12/20 06:50:55;;;;;;;40.47;19.52;;;0.20;99.90;;;;;;4997598;28;20034;-86
2022/12/20 06:53:21;;;;;;;42.13;19.98;;;0.20;99.90;;;;;;4980700;28;20061;-88
2022/12/20 06:55:49;;;;;;;45.95;20.80;;;0.10;99.90;;;;;;4992975;28;20066;-86
2022/12/20 06:58:16;;;;;;;42.22;19.50;;;0.20;99.90;;;;;;5008583;28;20106;-86
2022/12/20 07:00:44;;;;;;;44.80;20.88;;;0.20;99.90;;;;;;5007834;28;20035;-86
2022/12/20 07:03:10;;;;;;;43.15;18.50;;;0.20;99.90;;;;;;4992938;28;20524;-88
2022/12/20 07:05:36;;;;;;;38.72;19.23;;;0.20;99.90;;;;;;5015495;28;20041;-87
2022/12/20 07:08:03;;;;;;;37.08;18.77;;;0.20;99.90;;;;;;4991729;28;20038;-86
2022/12/20 07:10:30;;;;;;;41.55;20.20;;;0.20;99.90;;;;;;4976258;28;20426;-86
2022/12/20 07:12:56;;;;;;;35.22;18.33;;;0.20;99.90;;;;;;4989537;28;20074;-86
2022/12/20 07:15:22;;;;;;;44.33;20.30;;;0.20;99.90;;;;;;4991629;28;20027;-87
2022/12/20 07:18:00;;;;;;;41.03;20.98;;;0.20;99.90;;;;;;5009199;28;20026;-86
2022/12/20 07:20:26;;;;;;;43.95;20.25;;;0.20;99.90;;;;;;5007308;28;20034;-86
2022/12/20 07:22:52;;;;;;;40.53;19.98;;;0.20;99.90;;;;;;5006397;28;20038;-86
2022/12/20 07:25:18;;;;;;;45.40;20.63;;;0.30;99.90;;;;;;5018245;28;20038;-87
2022/12/20 07:27:47;;;;;;;43.08;20.05;;;0.30;99.90;;;;;;5003099;28;20033;-86
2022/12/20 07:30:13;;;;;;;41.25;19.95;;;0.30;99.90;;;;;;5003374;28;20030;-87
2022/12/20 07:32:39;;;;;;;45.80;21.73;;;0.30;99.90;;;;;;4994232;28;20034;-88
2022/12/20 07:35:05;;;;;;;40.00;19.92;;;0.30;99.90;;;;;;4992734;28;20030;-86
2022/12/20 07:37:31;;;;;;;44.70;21.10;;;0.20;99.90;;;;;;4993435;28;20030;-88
2022/12/20 07:39:57;;;;;;;48.05;24.33;;;0.30;99.90;;;;;;4992986;28;20062;-89
2022/12/20 07:42:23;;;;;;;45.85;22.98;;;0.30;99.90;;;;;;4986137;28;20643;-87
2022/12/20 07:44:49;;;;;;;51.90;25.63;;;0.40;99.90;;;;;;4992942;28;20160;-87
2022/12/20 07:47:15;;;;;;;41.92;20.27;;;0.40;99.90;;;;;;4993096;28;20065;-87
2022/12/20 07:49:41;;;;;;;43.92;21.52;;;0.50;99.90;;;;;;4977108;28;20041;-88
2022/12/20 07:52:08;;;;;;;42.40;20.58;;;0.50;99.90;;;;;;5013742;28;20026;-87
2022/12/20 07:54:39;;;;;;;43.90;20.77;;;0.60;99.90;;;;;;5010057;28;20038;-87
2022/12/20 07:57:11;;;;;;;42.60;22.00;;;0.50;99.90;;;;;;5016644;28;20037;-86
2022/12/20 07:59:43;;;;;;;41.00;21.60;;;0.60;99.90;;;;;;5032541;28;20087;-87
2022/12/20 08:02:25;;;;;;;40.80;20.10;;;0.60;99.90;;;;;;5008694;28;20034;-87
2022/12/20 08:04:53;;;;;;;41.53;20.45;;;0.60;99.90;;;;;;5007737;28;20485;-86
2022/12/20 08:07:18;;;;;;;37.03;19.55;;;0.60;99.90;;;;;;4994416;28;20027;-88
2022/12/20 08:09:46;;;;;;;42.80;19.65;;;0.60;99.90;;;;;;4995072;28;20044;-87
2022/12/20 08:12:15;;;;;;;37.88;18.67;;;0.60;99.90;;;;;;5011593;28;20045;-86
2022/12/20 08:14:41;;;;;;;36.95;18.50;;;0.60;99.90;;;;;;4996119;28;20030;-86
2022/12/20 08:17:07;;;;;;;37.83;17.85;;;0.60;99.90;;;;;;4992067;28;20050;-88
2022/12/20 08:19:34;;;;;;;36.03;19.13;;;0.60;99.90;;;;;;4979114;28;20491;-86
2022/12/20 08:22:00;;;;;;;37.70;18.35;;;0.60;99.90;;;;;;4998397;28;20049;-86
2022/12/20 08:24:25;;;;;;;39.67;18.45;;;0.60;99.90;;;;;;4994662;28;20482;-86
2022/12/20 08:26:51;;;;;;;38.10;18.35;;;0.70;99.90;;;;;;4995183;28;20030;-86
2022/12/20 08:29:17;;;;;;;40.05;18.73;;;0.70;99.90;;;;;;4977567;28;20026;-87
2022/12/20 08:31:43;;;;;;;39.95;20.00;;;0.70;99.90;;;;;;4998073;28;20038;-85
2022/12/20 08:34:10;;;;;;;35.70;18.95;;;0.80;99.90;;;;;;4988046;28;20038;-86
2022/12/20 08:36:36;;;;;;;38.55;19.13;;;0.80;99.90;;;;;;4986134;28;20041;-85
2022/12/20 08:39:03;;;;;;;46.03;18.92;;;0.80;99.90;;;;;;4995633;28;20080;-86
2022/12/20 08:41:29;;;;;;;36.25;19.40;;;0.80;99.90;;;;;;5006166;28;20031;-85
2022/12/20 08:43:55;;;;;;;38.05;18.92;;;0.80;99.90;;;;;;5011823;28;20046;-86
2022/12/20 08:46:21;;;;;;;37.42;19.33;;;0.80;99.90;;;;;;4969904;28;20034;-86
2022/12/20 08:48:46;;;;;;;41.53;19.92;;;0.90;99.90;;;;;;4974137;28;20117;-86
2022/12/20 08:51:12;;;;;;;37.42;20.08;;;0.90;99.90;;;;;;4974077;28;20089;-86
2022/12/20 08:53:38;;;;;;;39.58;18.50;;;0.90;99.90;;;;;;4983537;28;20062;-87
2022/12/20 08:56:04;;;;;;;42.17;20.17;;;1.00;99.90;;;;;;5010008;28;20253;-86
2022/12/20 08:58:31;;;;;;;39.95;20.17;;;1.00;99.90;;;;;;4995303;28;20533;-86
2022/12/20 09:01:02;;;;;;;41.90;20.88;;;1.00;99.90;;;;;;4992703;28;20056;-85
2022/12/20 09:03:30;;;;;;;37.80;18.55;;;1.00;99.90;;;;;;4993566;28;20058;-86
2022/12/20 09:05:57;;;;;;;43.58;20.60;;;1.10;99.90;;;;;;4990951;28;20038;-85
2022/12/20 09:08:23;;;;;;;38.45;17.92;;;1.10;99.90;;;;;;4993876;28;20068;-86
2022/12/20 09:10:48;;;;;;;40.30;19.27;;;1.10;99.90;;;;;;5009244;28;20030;-87
2022/12/20 09:13:14;;;;;;;39.65;19.00;;;1.10;99.90;;;;;;4992588;28;20041;-86
2022/12/20 09:15:41;;;;;;;32.97;18.58;;;1.10;99.90;;;;;;5006696;28;20069;-87
2022/12/20 09:18:07;;;;;;;38.63;19.23;;;1.10;99.90;;;;;;4972713;28;20031;-86
2022/12/20 09:20:33;;;;;;;42.33;19.58;;;1.10;99.90;;;;;;4973294;28;20035;-85
2022/12/20 09:22:59;;;;;;;33.72;18.05;;;1.10;99.90;;;;;;4975648;28;20478;-86
2022/12/20 09:25:26;;;;;;;39.03;18.25;;;1.10;99.90;;;;;;4979603;28;20023;-85
2022/12/20 09:27:55;;;;;;;37.88;19.27;;;1.20;99.90;;;;;;4996923;28;20376;-85
2022/12/20 09:30:22;;;;;;;37.60;17.65;;;1.20;99.90;;;;;;4995511;28;20101;-85
2022/12/20 09:32:48;;;;;;;40.05;19.83;;;1.20;99.90;;;;;;5008175;28;20038;-85
2022/12/20 09:35:14;;;;;;;43.30;21.98;;;1.20;99.90;;;;;;4994380;28;20100;-86
2022/12/20 09:37:40;;;;;;;39.60;17.83;;;1.30;99.90;;;;;;5011289;28;20487;-89
2022/12/20 09:40:13;;;;;;;36.50;18.23;;;1.30;99.90;;;;;;5010636;28;20057;-89
2022/12/20 09:42:39;;;;;;;33.97;17.17;;;1.30;99.90;;;;;;4994751;28;20034;-88
2022/12/20 09:45:08;;;;;;;36.80;17.58;;;1.30;99.90;;;;;;5008150;28;20696;-89
2022/12/20 09:47:36;;;;;;;35.35;18.60;;;1.40;99.90;;;;;;4979319;28;20045;-88
2022/12/20 09:50:05;;;;;;;36.90;18.35;;;1.40;99.90;;;;;;5009767;28;20030;-88
2022/12/20 09:52:40;;;;;;;36.10;17.58;;;1.30;99.90;;;;;;5009539;28;20050;-88
2022/12/20 09:55:27;;;;;;;36.63;17.95;;;1.40;99.90;;;;;;4993655;28;20041;-88
2022/12/20 09:58:14;;;;;;;40.53;20.65;;;1.40;99.90;;;;;;4989773;28;20034;-88
2022/12/20 10:00:44;;;;;;;36.08;16.35;;;1.40;99.90;;;;;;4989811;28;20122;-87
2022/12/20 10:03:17;;;;;;;34.53;18.42;;;1.40;99.90;;;;;;4993097;28;20466;-88
2022/12/20 10:05:54;;;;;;;37.00;17.77;;;1.40;99.90;;;;;;5009230;28;20030;-88
2022/12/20 10:08:23;;;;;;;33.63;17.00;;;1.40;99.90;;;;;;5009402;28;20080;-88
2022/12/20 10:11:02;;;;;;;33.33;16.70;;;1.50;99.90;;;;;;5010484;28;20027;-88
2022/12/20 10:13:45;;;;;;;34.20;17.33;;;1.40;99.90;;;;;;4989278;28;20511;-88
2022/12/20 10:16:32;;;;;;;34.28;16.77;;;1.40;99.90;;;;;;5008448;28;20034;-89
2022/12/20 10:19:25;;;;;;;39.15;18.00;;;1.40;99.90;;;;;;4992523;28;20439;-87
2022/12/20 10:22:17;;;;;;;38.05;19.17;;;1.40;99.90;;;;;;4992197;28;20034;-89
2022/12/20 10:25:11;;;;;;;34.88;16.25;;;1.40;99.90;;;;;;5008904;28;20034;-88
2022/12/20 10:27:41;;;;;;;34.25;16.50;;;1.40;99.90;;;;;;4978106;28;20203;-88
2022/12/20 10:30:19;;;;;;;34.58;16.45;;;1.40;99.90;;;;;;5007076;28;20395;-86
2022/12/20 10:32:51;;;;;;;32.80;15.68;;;1.40;99.90;;;;;;4980159;28;20080;-87
2022/12/20 10:35:23;;;;;;;29.77;14.15;;;1.40;99.90;;;;;;4998155;28;20034;-85
2022/12/20 10:38:02;;;;;;;30.23;15.98;;;1.40;99.90;;;;;;4998687;28;20061;-87
2022/12/20 10:40:35;;;;;;;33.40;16.05;;;1.30;99.90;;;;;;4967274;28;20027;-88
2022/12/20 10:43:03;;;;;;;34.90;16.77;;;1.40;99.90;;;;;;4977923;28;20060;-88
2022/12/20 10:45:37;;;;;;;35.08;16.73;;;1.40;99.90;;;;;;4987607;28;20122;-87
2022/12/20 10:48:22;;;;;;;35.20;17.35;;;1.40;99.90;;;;;;4974426;28;20122;-87
2022/12/20 10:51:20;;;;;;;33.20;16.33;;;1.40;99.90;;;;;;4987643;28;20133;-89
2022/12/20 10:53:53;;;;;;;33.50;15.60;;;1.50;99.90;;;;;;5000066;28;20110;-88
2022/12/20 10:56:26;;;;;;;34.42;17.17;;;1.50;99.90;;;;;;4990362;28;20069;-89
2022/12/20 10:59:23;;;;;;;30.30;15.57;;;1.60;99.90;;;;;;5001223;28;20056;-89
2022/12/20 11:01:49;;;;;;;30.67;15.90;;;1.60;99.90;;;;;;4989312;28;20148;-89
2022/12/20 11:04:27;;;;;;;37.35;16.65;;;1.70;99.90;;;;;;5004838;28;20529;-89
2022/12/20 11:06:53;;;;;;;34.55;16.80;;;1.70;99.90;;;;;;4974173;28;20479;-89
2022/12/20 11:09:30;;;;;;;30.48;15.90;;;1.70;99.90;;;;;;4990285;28;20080;-90
2022/12/20 11:12:14;;;;;;;32.83;16.35;;;1.80;99.90;;;;;;5008635;28;20445;-91
2022/12/20 11:14:43;;;;;;;30.98;16.58;;;1.90;99.90;;;;;;5008173;28;20563;-90
2022/12/20 11:17:18;;;;;;;35.22;17.45;;;1.90;99.90;;;;;;4975217;28;20069;-90
2022/12/20 11:19:55;;;;;;;33.75;16.83;;;1.90;99.90;;;;;;4981200;28;20034;-91
2022/12/20 11:22:39;;;;;;;35.33;17.25;;;1.90;99.90;;;;;;4997223;28;20038;-89
2022/12/20 11:25:23;;;;;;;30.02;16.10;;;2.00;99.90;;;;;;4972881;28;20041;-89
2022/12/20 11:28:07;;;;;;;31.98;15.20;;;2.00;99.90;;;;;;5010177;28;20113;-90
2022/12/20 11:31:01;;;;;;;31.25;15.20;;;2.00;99.90;;;;;;4999732;28;20023;-90
2022/12/20 11:34:02;;;;;;;31.80;16.73;;;2.00;99.90;;;;;;5004980;28;20061;-89
2022/12/20 11:36:28;;;;;;;36.47;16.58;;;2.00;99.90;;;;;;5006949;28;20425;-90
2022/12/20 11:39:14;;;;;;;29.90;14.90;;;2.00;99.90;;;;;;4983331;28;20073;-90
2022/12/20 11:41:55;;;;;;;30.52;15.13;;;2.00;99.90;;;;;;5007819;28;20068;-90
2022/12/20 11:44:47;;;;;;;34.45;16.13;;;1.90;99.90;;;;;;4975439;28;20487;-89
2022/12/20 11:47:41;;;;;;;32.00;16.10;;;1.90;99.90;;;;;;4995225;28;20057;-90
2022/12/20 11:50:35;;;;;;;33.50;16.58;;;1.90;99.90;;;;;;4986934;28;20103;-89
2022/12/20 11:53:07;;;;;;;31.73;15.38;;;1.90;99.90;;;;;;4989760;28;20081;-88
2022/12/20 11:55:38;;;;;;;32.28;16.55;;;1.90;99.90;;;;;;4993497;28;20058;-89
2022/12/20 11:58:14;;;;;;;32.97;16.45;;;2.00;99.90;;;;;;4982138;28;20054;-90
2022/12/20 12:00:44;;;;;;;32.90;15.32;;;1.90;99.90;;;;;;4976765;28;20407;-90
2022/12/20 12:03:27;;;;;;;31.90;16.52;;;2.00;99.90;;;;;;4992461;28;20026;-89
2022/12/20 12:06:02;;;;;;;29.63;14.55;;;2.00;99.90;;;;;;4989696;28;20018;-89
2022/12/20 12:09:04;;;;;;;35.15;16.02;;;2.20;99.90;;;;;;4970273;28;20030;-88
2022/12/20 12:11:34;;;;;;;32.28;14.10;;;2.20;99.90;;;;;;5000523;28;20035;-89
2022/12/20 12:14:04;;;;;;;32.40;15.68;;;2.10;99.90;;;;;;5000407;28;20038;-90
2022/12/20 12:16:36;;;;;;;29.42;15.77;;;2.00;99.90;;;;;;5000173;28;20034;-89
2022/12/20 12:19:07;;;;;;;33.47;16.42;;;2.00;99.90;;;;;;5002588;28;20034;-90
2022/12/20 12:21:48;;;;;;;30.73;16.02;;;2.00;99.90;;;;;;4994871;28;20034;-91
2022/12/20 12:24:33;;;;;;;33.03;16.33;;;2.00;99.90;;;;;;5005402;28;20035;-90
2022/12/20 12:27:00;;;;;;;34.90;17.33;;;2.00;99.90;;;;;;4992875;28;20022;-90
2022/12/20 12:29:28;;;;;;;37.63;15.48;;;2.00;99.90;;;;;;4988838;28;20057;-89
2022/12/20 12:32:07;;;;;;;32.05;15.23;;;2.10;99.90;;;;;;4987660;28;20035;-89
2022/12/20 12:35:11;;;;;;;29.20;14.82;;;2.10;99.90;;;;;;4988503;28;20030;-89
2022/12/20 12:37:40;;;;;;;29.20;14.10;;;2.10;99.90;;;;;;4988598;28;20084;-89
2022/12/20 12:40:43;;;;;;;27.92;14.68;;;2.10;99.90;;;;;;4988496;28;20383;-88
2022/12/20 12:43:29;;;;;;;33.45;15.20;;;2.10;99.90;;;;;;4971195;28;20030;-89
2022/12/20 12:45:58;;;;;;;31.23;15.70;;;2.00;99.90;;;;;;5000481;28;20041;-89
2022/12/20 12:48:50;;;;;;;29.58;13.75;;;2.00;99.90;;;;;;4986851;28;20023;-90
2022/12/20 12:51:23;;;;;;;29.23;14.57;;;2.00;99.90;;;;;;4982724;28;20061;-89
2022/12/20 12:53:52;;;;;;;31.95;14.13;;;2.00;99.90;;;;;;4998896;28;20039;-88
2022/12/20 12:56:27;;;;;;;29.05;15.30;;;2.00;99.90;;;;;;4992317;28;20478;-89
2022/12/20 12:59:18;;;;;;;27.98;14.52;;;2.00;99.90;;;;;;4987019;28;20047;-89
2022/12/20 13:01:52;;;;;;;32.38;15.30;;;2.00;99.90;;;;;;4978955;28;20069;-89
2022/12/20 13:04:21;;;;;;;30.63;15.32;;;2.00;99.90;;;;;;4969571;28;20056;-88
2022/12/20 13:06:46;;;;;;;31.00;15.23;;;2.10;99.90;;;;;;4992105;28;20035;-88